Time;durP1;ratioP1;P1;durP2;ratioP2;P2;SDS_P1;SDS_P2;PMS_P1;PMS_P2;Temp;Humidity;BMP_temperature;BMP_pressure;BME280_temperature;BME280_humidity;BME280_pressure;Samples;Min_cycle;Max_cycle;Signal;HPM_P1;HPM_P2
2023/08/22 00:00:16;;;;;;;7.00;4.00;;;17.80;99.90;;;;;;5077411;28;20296;-76
2023/08/22 00:02:43;;;;;;;7.18;3.67;;;17.70;99.90;;;;;;5088987;28;20553;-76
2023/08/22 00:05:09;;;;;;;9.60;3.80;;;17.70;99.90;;;;;;5097765;28;20171;-74
2023/08/22 00:07:35;;;;;;;7.45;3.95;;;17.70;99.90;;;;;;5097137;28;20231;-74
2023/08/22 00:10:01;;;;;;;10.13;4.10;;;17.70;99.90;;;;;;5095825;28;20181;-74
2023/08/22 00:12:26;;;;;;;7.60;4.28;;;17.70;99.90;;;;;;5095959;28;20181;-74
2023/08/22 00:14:52;;;;;;;7.55;4.55;;;17.70;99.90;;;;;;5096946;28;20161;-74
2023/08/22 00:17:18;;;;;;;4.55;3.55;;;17.60;99.90;;;;;;5095120;28;20205;-74
2023/08/22 00:19:45;;;;;;;7.32;3.90;;;17.60;99.90;;;;;;5095610;28;20641;-75
2023/08/22 00:22:11;;;;;;;5.82;4.22;;;17.60;99.90;;;;;;5097249;28;20189;-75
2023/08/22 00:24:38;;;;;;;7.05;3.80;;;17.60;99.90;;;;;;5097080;28;20200;-75
2023/08/22 00:27:04;;;;;;;6.68;3.88;;;17.60;99.90;;;;;;5095086;28;20207;-75
2023/08/22 00:29:30;;;;;;;9.95;3.88;;;17.50;99.90;;;;;;5096243;28;20277;-75
2023/08/22 00:31:58;;;;;;;7.30;3.60;;;17.40;99.90;;;;;;5095042;28;20724;-75
2023/08/22 00:34:25;;;;;;;5.60;3.78;;;17.40;99.90;;;;;;5096153;28;20207;-75
2023/08/22 00:36:51;;;;;;;6.75;3.83;;;17.30;99.90;;;;;;5096309;28;20204;-75
2023/08/22 00:39:16;;;;;;;7.18;3.65;;;17.20;99.90;;;;;;5096215;28;20169;-75
2023/08/22 00:41:43;;;;;;;7.50;3.70;;;17.20;99.90;;;;;;5095902;28;20185;-75
2023/08/22 00:44:08;;;;;;;5.45;3.78;;;17.10;99.90;;;;;;5094654;28;20177;-75
2023/08/22 00:46:35;;;;;;;6.13;3.60;;;17.10;99.90;;;;;;5095511;28;20552;-74
2023/08/22 00:49:04;;;;;;;8.60;3.88;;;17.10;99.90;;;;;;5095789;28;20175;-75
2023/08/22 00:51:30;;;;;;;8.77;4.15;;;17.10;99.90;;;;;;5095883;28;20610;-74
2023/08/22 00:53:56;;;;;;;6.60;4.00;;;17.00;99.90;;;;;;5096212;28;20183;-75
2023/08/22 00:56:22;;;;;;;6.20;3.97;;;17.00;99.90;;;;;;5095430;28;20220;-75
2023/08/22 00:58:48;;;;;;;18.15;4.28;;;17.00;99.90;;;;;;5095667;28;20227;-74
2023/08/22 01:01:14;;;;;;;11.35;4.90;;;17.00;99.90;;;;;;5094544;28;20193;-75
2023/08/22 01:03:40;;;;;;;8.55;4.72;;;16.90;99.90;;;;;;5075066;28;20642;-75
2023/08/22 01:06:19;;;;;;;8.98;4.70;;;17.00;99.90;;;;;;5075361;28;20206;-75
2023/08/22 01:08:51;;;;;;;5.65;4.38;;;16.90;99.90;;;;;;5075270;28;20695;-75
2023/08/22 01:11:31;;;;;;;6.25;4.60;;;16.90;99.90;;;;;;5075639;28;20229;-74
2023/08/22 01:14:00;;;;;;;9.65;4.13;;;17.00;99.90;;;;;;5073901;28;20170;-75
2023/08/22 01:16:26;;;;;;;8.48;4.15;;;17.00;99.90;;;;;;5074823;28;20200;-75
2023/08/22 01:18:52;;;;;;;9.48;4.70;;;17.00;99.90;;;;;;5075218;28;20536;-75
2023/08/22 01:21:19;;;;;;;11.05;5.15;;;17.00;99.90;;;;;;5075150;28;20190;-75
2023/08/22 01:23:46;;;;;;;6.88;4.00;;;17.00;99.90;;;;;;5075347;28;20166;-75
2023/08/22 01:26:11;;;;;;;8.95;4.50;;;17.00;99.90;;;;;;5075087;28;20681;-75
2023/08/22 01:28:45;;;;;;;8.25;5.15;;;17.00;99.90;;;;;;5074980;28;20205;-75
2023/08/22 01:31:26;;;;;;;8.90;5.18;;;17.00;99.90;;;;;;5075939;28;20565;-75
2023/08/22 01:34:24;;;;;;;8.65;5.40;;;17.00;99.90;;;;;;5095060;28;20165;-75
2023/08/22 01:36:54;;;;;;;10.57;7.57;;;17.00;99.90;;;;;;5090447;28;20798;-75
2023/08/22 01:39:22;;;;;;;10.65;7.15;;;16.90;99.90;;;;;;5095356;28;20157;-75
2023/08/22 01:41:48;;;;;;;10.88;6.68;;;16.90;99.90;;;;;;5095417;28;20272;-75
2023/08/22 01:44:14;;;;;;;8.38;6.18;;;16.80;99.90;;;;;;5095090;28;20180;-75
2023/08/22 01:46:40;;;;;;;14.20;6.50;;;16.80;99.90;;;;;;5094934;28;20178;-75
2023/08/22 01:49:06;;;;;;;9.75;6.55;;;16.80;99.90;;;;;;5094938;28;20221;-75
2023/08/22 01:51:31;;;;;;;15.63;6.03;;;16.70;99.90;;;;;;5095006;28;20203;-75
2023/08/22 01:53:57;;;;;;;8.80;4.88;;;16.70;99.90;;;;;;5095445;28;20573;-74
2023/08/22 01:56:23;;;;;;;11.45;5.60;;;16.70;99.90;;;;;;5095327;28;20695;-75
2023/08/22 01:58:49;;;;;;;13.02;5.80;;;16.80;99.90;;;;;;5096224;28;20210;-74
2023/08/22 02:01:15;;;;;;;7.88;5.22;;;16.80;99.90;;;;;;5093029;28;20193;-74
2023/08/22 02:03:42;;;;;;;11.45;6.00;;;16.70;99.90;;;;;;5073930;28;20650;-74
2023/08/22 02:06:08;;;;;;;13.15;6.05;;;16.80;99.90;;;;;;5073245;28;20174;-75
2023/08/22 02:08:34;;;;;;;9.00;5.20;;;16.80;99.90;;;;;;5074541;28;20177;-75
2023/08/22 02:10:59;;;;;;;11.10;5.90;;;16.80;99.90;;;;;;5074541;28;20243;-74
2023/08/22 02:13:25;;;;;;;8.55;5.28;;;16.80;99.90;;;;;;5074279;28;20666;-75
2023/08/22 02:15:51;;;;;;;8.85;5.63;;;16.70;99.90;;;;;;5072870;28;20205;-75
2023/08/22 02:18:17;;;;;;;8.82;5.28;;;16.70;99.90;;;;;;5073942;28;20200;-75
2023/08/22 02:20:43;;;;;;;11.27;5.90;;;16.80;99.90;;;;;;5072794;28;20677;-75
2023/08/22 02:23:09;;;;;;;8.82;5.40;;;16.80;99.90;;;;;;5072892;28;20203;-74
2023/08/22 02:25:35;;;;;;;11.35;6.15;;;16.80;99.90;;;;;;5072795;28;20174;-74
2023/08/22 02:28:02;;;;;;;6.00;4.53;;;16.80;99.90;;;;;;5073931;28;20182;-75
2023/08/22 02:30:27;;;;;;;9.07;4.80;;;16.70;99.90;;;;;;5072628;28;20198;-74
2023/08/22 02:32:53;;;;;;;9.02;4.15;;;16.60;99.90;;;;;;5088698;28;20177;-75
2023/08/22 02:35:19;;;;;;;4.82;4.32;;;16.50;99.90;;;;;;5094230;28;20157;-75
2023/08/22 02:37:45;;;;;;;7.32;4.28;;;16.40;99.90;;;;;;5093897;28;20244;-75
2023/08/22 02:40:11;;;;;;;8.20;4.28;;;16.40;99.90;;;;;;5092647;28;20208;-75
2023/08/22 02:42:39;;;;;;;9.55;4.80;;;16.30;99.90;;;;;;5094490;28;20197;-74
2023/08/22 02:45:05;;;;;;;6.45;4.28;;;16.30;99.90;;;;;;5093759;28;20256;-75
2023/08/22 02:47:31;;;;;;;4.35;3.90;;;16.30;99.90;;;;;;5092462;28;20529;-76
2023/08/22 02:49:58;;;;;;;5.95;3.85;;;16.30;99.90;;;;;;5093694;28;20256;-75
2023/08/22 02:52:24;;;;;;;7.32;4.80;;;16.20;99.90;;;;;;5093963;28;20173;-75
2023/08/22 02:54:51;;;;;;;7.30;3.92;;;16.30;99.90;;;;;;5093692;28;20277;-75
2023/08/22 02:57:17;;;;;;;7.70;4.30;;;16.30;99.90;;;;;;5093517;28;20201;-75
2023/08/22 02:59:42;;;;;;;8.70;4.13;;;16.30;99.90;;;;;;5092288;28;20222;-75
2023/08/22 03:02:08;;;;;;;9.13;4.78;;;16.30;99.90;;;;;;5093260;28;20613;-75
2023/08/22 03:04:36;;;;;;;9.35;4.93;;;16.30;99.90;;;;;;5093630;28;20537;-75
2023/08/22 03:07:05;;;;;;;4.43;3.80;;;16.30;99.90;;;;;;5092263;28;20180;-75
2023/08/22 03:09:32;;;;;;;6.40;4.18;;;16.40;99.90;;;;;;5093479;28;20177;-75
2023/08/22 03:11:58;;;;;;;7.68;4.60;;;16.40;99.90;;;;;;5093541;28;20197;-75
2023/08/22 03:14:26;;;;;;;9.88;4.20;;;16.40;99.90;;;;;;5093534;28;20183;-75
2023/08/22 03:16:52;;;;;;;5.07;3.90;;;16.30;99.90;;;;;;5093142;28;20207;-75
2023/08/22 03:19:18;;;;;;;5.05;3.55;;;16.30;99.90;;;;;;5097208;28;20173;-75
2023/08/22 03:21:44;;;;;;;8.82;3.90;;;16.30;99.90;;;;;;5096279;28;20218;-75
2023/08/22 03:24:10;;;;;;;6.57;4.40;;;16.20;99.90;;;;;;5096241;28;20539;-75
2023/08/22 03:26:35;;;;;;;14.82;5.35;;;16.30;99.90;;;;;;5097261;28;20183;-75
2023/08/22 03:29:01;;;;;;;9.38;4.60;;;16.30;99.90;;;;;;5097393;28;20248;-75
2023/08/22 03:31:28;;;;;;;7.55;4.85;;;16.30;99.90;;;;;;5097344;28;20200;-75
2023/08/22 03:33:54;;;;;;;8.52;4.72;;;16.40;99.90;;;;;;5095740;28;20188;-75
2023/08/22 03:36:20;;;;;;;7.78;5.22;;;16.40;99.90;;;;;;5095918;28;20669;-75
2023/08/22 03:38:50;;;;;;;8.35;5.40;;;16.40;99.90;;;;;;5095882;28;20177;-75
2023/08/22 03:41:17;;;;;;;8.13;5.53;;;16.40;99.90;;;;;;5097233;28;20215;-75
2023/08/22 03:43:42;;;;;;;12.48;6.60;;;16.40;99.90;;;;;;5097095;28;20188;-76
2023/08/22 03:46:08;;;;;;;9.27;5.85;;;16.40;99.90;;;;;;5095917;28;20633;-77
2023/08/22 03:48:34;;;;;;;9.23;6.88;;;16.40;99.90;;;;;;5095519;28;20264;-76
2023/08/22 03:51:00;;;;;;;8.70;5.97;;;16.40;99.90;;;;;;5095650;28;20740;-76
2023/08/22 03:53:25;;;;;;;10.85;6.13;;;16.40;99.90;;;;;;5095760;28;20173;-77
2023/08/22 03:55:51;;;;;;;9.68;5.57;;;16.30;99.90;;;;;;5095386;28;20259;-77
2023/08/22 03:58:17;;;;;;;7.18;5.40;;;16.40;99.90;;;;;;5096970;28;20168;-76
2023/08/22 04:00:43;;;;;;;8.55;5.53;;;16.30;99.90;;;;;;5095497;28;20193;-77
2023/08/22 04:03:09;;;;;;;8.55;4.93;;;16.20;99.90;;;;;;5095401;28;20688;-77
2023/08/22 04:05:34;;;;;;;6.13;4.65;;;16.20;99.90;;;;;;5095543;28;20718;-77
2023/08/22 04:08:00;;;;;;;6.32;3.97;;;16.20;99.90;;;;;;5095418;28;20180;-77
2023/08/22 04:10:26;;;;;;;9.05;4.10;;;16.10;99.90;;;;;;5096808;28;20189;-77
2023/08/22 04:12:51;;;;;;;4.65;3.80;;;16.00;99.90;;;;;;5096628;28;20181;-75
2023/08/22 04:15:19;;;;;;;6.75;4.30;;;15.90;99.90;;;;;;5096698;28;20221;-74
2023/08/22 04:17:45;;;;;;;8.50;4.20;;;15.90;99.90;;;;;;5094933;28;20193;-74
2023/08/22 04:20:11;;;;;;;6.13;3.80;;;15.80;99.90;;;;;;5096379;28;20173;-74
2023/08/22 04:22:41;;;;;;;6.13;4.18;;;15.80;99.90;;;;;;5096586;28;20222;-74
2023/08/22 04:25:10;;;;;;;7.07;4.13;;;15.90;99.90;;;;;;5096276;28;20520;-74
2023/08/22 04:27:37;;;;;;;6.18;4.85;;;15.90;99.90;;;;;;5094988;28;20649;-74
2023/08/22 04:30:03;;;;;;;5.20;4.15;;;16.00;99.90;;;;;;5095916;28;20684;-74
2023/08/22 04:32:29;;;;;;;5.57;4.25;;;15.90;99.90;;;;;;5096106;28;20318;-74
2023/08/22 04:34:55;;;;;;;6.80;4.43;;;15.90;99.90;;;;;;5095034;28;20213;-74
2023/08/22 04:37:21;;;;;;;7.80;4.20;;;16.00;99.90;;;;;;5096151;28;20221;-74
2023/08/22 04:39:47;;;;;;;6.85;4.60;;;16.00;99.90;;;;;;5094965;28;20564;-74
2023/08/22 04:42:13;;;;;;;7.05;4.10;;;16.10;99.90;;;;;;5094673;28;20227;-74
2023/08/22 04:44:38;;;;;;;7.88;4.57;;;16.10;99.90;;;;;;5096053;28;20516;-74
2023/08/22 04:47:04;;;;;;;9.32;5.15;;;16.10;99.90;;;;;;5095868;28;20181;-74
2023/08/22 04:49:30;;;;;;;8.65;5.18;;;16.10;99.90;;;;;;5094687;28;20177;-74
2023/08/22 04:51:56;;;;;;;7.32;4.55;;;16.10;99.90;;;;;;5095729;28;20197;-74
2023/08/22 04:54:21;;;;;;;8.82;5.20;;;16.10;99.90;;;;;;5095713;28;20630;-74
2023/08/22 04:56:47;;;;;;;10.70;4.97;;;16.10;99.90;;;;;;5094183;28;20205;-74
2023/08/22 04:59:13;;;;;;;6.70;4.50;;;16.20;99.90;;;;;;5095876;28;20170;-74
2023/08/22 05:01:38;;;;;;;8.27;5.20;;;16.20;99.90;;;;;;5094100;28;20239;-74
2023/08/22 05:04:04;;;;;;;6.65;5.10;;;16.20;99.90;;;;;;5095294;28;20165;-74
2023/08/22 05:06:30;;;;;;;9.18;5.50;;;16.20;99.90;;;;;;5094477;28;20217;-74
2023/08/22 05:08:56;;;;;;;9.82;5.72;;;16.20;99.90;;;;;;5095696;28;20184;-74
2023/08/22 05:11:21;;;;;;;15.40;6.38;;;16.10;99.90;;;;;;5095275;28;20199;-74
2023/08/22 05:13:47;;;;;;;9.40;5.82;;;16.10;99.90;;;;;;5095439;28;20200;-74
2023/08/22 05:16:13;;;;;;;7.88;5.18;;;16.10;99.90;;;;;;5094460;28;20215;-74
2023/08/22 05:18:38;;;;;;;7.13;4.68;;;16.20;99.90;;;;;;5095831;28;20251;-74
2023/08/22 05:21:05;;;;;;;7.53;4.05;;;16.20;99.90;;;;;;5095447;28;20192;-74
2023/08/22 05:23:31;;;;;;;5.07;4.47;;;16.20;99.90;;;;;;5094310;28;20213;-74
2023/08/22 05:25:57;;;;;;;7.63;4.35;;;16.20;99.90;;;;;;5095456;28;20212;-74
2023/08/22 05:28:22;;;;;;;7.90;4.60;;;16.20;99.90;;;;;;5094182;28;20231;-74
2023/08/22 05:30:48;;;;;;;6.95;4.65;;;16.30;99.90;;;;;;5095998;28;20193;-74
2023/08/22 05:33:14;;;;;;;9.68;5.32;;;16.20;99.90;;;;;;5095701;28;20633;-74
2023/08/22 05:35:40;;;;;;;5.90;4.32;;;16.20;99.90;;;;;;5095396;28;20184;-74
2023/08/22 05:38:05;;;;;;;11.07;4.65;;;16.20;99.90;;;;;;5095706;28;20224;-74
2023/08/22 05:40:31;;;;;;;7.57;4.53;;;16.20;99.90;;;;;;5094301;28;20661;-74
2023/08/22 05:42:57;;;;;;;6.20;4.68;;;16.20;99.90;;;;;;5095457;28;20180;-74
2023/08/22 05:45:23;;;;;;;8.52;4.45;;;16.20;99.90;;;;;;5095534;28;20169;-74
2023/08/22 05:47:49;;;;;;;8.82;4.65;;;16.20;99.90;;;;;;5093942;28;20264;-74
2023/08/22 05:50:14;;;;;;;8.68;5.53;;;16.20;99.90;;;;;;5095097;28;20188;-74
2023/08/22 05:52:40;;;;;;;5.05;4.07;;;16.30;99.90;;;;;;5094685;28;20176;-74
2023/08/22 05:55:06;;;;;;;7.80;4.47;;;16.30;99.90;;;;;;5095137;28;20177;-74
2023/08/22 05:57:32;;;;;;;7.10;4.45;;;16.30;99.90;;;;;;5094689;28;20330;-74
2023/08/22 05:59:59;;;;;;;6.60;4.65;;;16.40;99.90;;;;;;5094864;28;20304;-74
2023/08/22 06:02:25;;;;;;;9.25;4.78;;;16.40;99.90;;;;;;5093790;28;20527;-74
2023/08/22 06:04:51;;;;;;;7.20;4.93;;;16.40;99.90;;;;;;5094564;28;20222;-74
2023/08/22 06:07:17;;;;;;;7.30;4.80;;;16.50;99.90;;;;;;5094563;28;20177;-74
2023/08/22 06:09:43;;;;;;;7.35;5.10;;;16.40;99.90;;;;;;5093533;28;20180;-74
2023/08/22 06:12:09;;;;;;;8.23;5.15;;;16.50;99.90;;;;;;5095061;28;20224;-74
2023/08/22 06:14:34;;;;;;;7.00;5.13;;;16.50;99.90;;;;;;5093576;28;20185;-74
2023/08/22 06:17:00;;;;;;;10.20;5.22;;;16.50;99.90;;;;;;5095303;28;20196;-74
2023/08/22 06:19:26;;;;;;;8.88;4.50;;;16.60;99.90;;;;;;5093139;28;20272;-74
2023/08/22 06:21:52;;;;;;;8.27;5.13;;;16.70;99.90;;;;;;5093164;28;20567;-74
2023/08/22 06:24:18;;;;;;;6.75;5.30;;;16.80;99.90;;;;;;5094638;28;20242;-74
2023/08/22 06:26:43;;;;;;;12.32;6.30;;;16.90;99.90;;;;;;5094573;28;20180;-74
2023/08/22 06:29:09;;;;;;;11.75;7.03;;;16.90;99.90;;;;;;5094571;28;20229;-74
2023/08/22 06:31:35;;;;;;;14.15;8.18;;;17.00;99.90;;;;;;5089920;28;20197;-74
2023/08/22 06:34:01;;;;;;;12.18;7.95;;;16.90;99.90;;;;;;5072718;28;20184;-74
2023/08/22 06:36:27;;;;;;;10.27;6.93;;;17.00;99.90;;;;;;5073844;28;20198;-74
2023/08/22 06:38:53;;;;;;;17.30;8.27;;;17.00;99.90;;;;;;5072646;28;20179;-74
2023/08/22 06:41:19;;;;;;;12.02;7.55;;;17.10;99.90;;;;;;5074005;28;20568;-74
2023/08/22 06:43:46;;;;;;;18.67;8.07;;;17.20;99.90;;;;;;5074052;28;20173;-74
2023/08/22 06:46:12;;;;;;;9.75;7.75;;;17.40;99.90;;;;;;5073900;28;20268;-74
2023/08/22 06:48:37;;;;;;;12.90;7.30;;;17.50;99.90;;;;;;5073385;28;20197;-74
2023/08/22 06:51:03;;;;;;;13.73;7.50;;;17.80;99.90;;;;;;5072205;28;20204;-74
2023/08/22 06:53:29;;;;;;;16.13;6.75;;;17.90;99.90;;;;;;5073366;28;20170;-74
2023/08/22 06:55:56;;;;;;;12.93;7.28;;;17.90;99.90;;;;;;5073082;28;20197;-74
2023/08/22 06:58:22;;;;;;;14.27;7.18;;;17.90;99.90;;;;;;5073475;28;20207;-74
2023/08/22 07:00:48;;;;;;;14.68;7.88;;;18.00;99.90;;;;;;5072267;28;20659;-74
2023/08/22 07:03:14;;;;;;;15.05;7.32;;;18.20;99.90;;;;;;5073316;28;20219;-74
2023/08/22 07:05:40;;;;;;;13.13;6.72;;;18.40;99.90;;;;;;5073407;28;20253;-74
2023/08/22 07:08:07;;;;;;;10.20;6.65;;;18.60;99.90;;;;;;5073600;28;20178;-74
2023/08/22 07:10:34;;;;;;;15.23;6.90;;;18.70;99.90;;;;;;5073460;28;20199;-74
2023/08/22 07:13:00;;;;;;;10.40;6.25;;;18.80;99.90;;;;;;5073603;28;20664;-74
2023/08/22 07:15:26;;;;;;;7.60;5.70;;;18.80;99.90;;;;;;5073577;28;20178;-74
2023/08/22 07:17:52;;;;;;;9.93;6.00;;;18.80;99.90;;;;;;5073329;28;20276;-74
2023/08/22 07:20:18;;;;;;;13.18;6.05;;;19.10;99.90;;;;;;5074563;28;20186;-74
2023/08/22 07:22:44;;;;;;;11.25;5.82;;;19.20;99.90;;;;;;5074660;28;20177;-74
2023/08/22 07:25:10;;;;;;;8.00;4.95;;;19.30;99.90;;;;;;5073099;28;20205;-74
2023/08/22 07:27:35;;;;;;;9.32;5.97;;;19.40;99.90;;;;;;5074445;28;20189;-74
2023/08/22 07:30:03;;;;;;;9.45;6.22;;;19.50;99.90;;;;;;5073308;28;20208;-74
2023/08/22 07:32:29;;;;;;;9.50;4.93;;;19.50;99.90;;;;;;5074639;28;20174;-74
2023/08/22 07:34:56;;;;;;;8.00;5.18;;;19.60;99.90;;;;;;5076926;28;20181;-74
2023/08/22 07:37:22;;;;;;;9.00;5.68;;;19.60;99.90;;;;;;5077522;28;20681;-74
2023/08/22 07:39:48;;;;;;;7.55;4.80;;;19.50;99.90;;;;;;5073643;28;20189;-74
2023/08/22 07:42:14;;;;;;;10.25;4.68;;;19.60;99.90;;;;;;5073283;28;20186;-74
2023/08/22 07:44:39;;;;;;;7.82;5.47;;;19.60;99.90;;;;;;5073986;28;20162;-74
2023/08/22 07:47:05;;;;;;;10.48;5.25;;;19.70;99.90;;;;;;5072037;28;20650;-74
2023/08/22 07:49:31;;;;;;;9.20;4.97;;;19.80;99.90;;;;;;5073098;28;20206;-74
2023/08/22 07:51:57;;;;;;;10.20;5.25;;;19.80;99.90;;;;;;5071845;28;20681;-74
2023/08/22 07:54:22;;;;;;;11.40;5.75;;;19.80;99.90;;;;;;5071914;28;20268;-74
2023/08/22 07:56:48;;;;;;;9.85;5.65;;;20.00;99.90;;;;;;5073170;28;20213;-74
2023/08/22 07:59:14;;;;;;;14.65;5.93;;;20.10;99.90;;;;;;5073179;28;20189;-74
2023/08/22 08:01:41;;;;;;;6.93;4.80;;;20.20;99.90;;;;;;5073156;28;20198;-74
2023/08/22 08:04:08;;;;;;;10.10;5.00;;;20.40;99.90;;;;;;5074188;28;20170;-74
2023/08/22 08:06:35;;;;;;;9.27;5.20;;;20.60;99.90;;;;;;5075395;28;20169;-74
2023/08/22 08:09:01;;;;;;;10.55;5.88;;;20.70;99.90;;;;;;5077006;28;20227;-74
2023/08/22 08:11:30;;;;;;;10.73;5.90;;;20.80;99.90;;;;;;5076620;28;20197;-74
2023/08/22 08:13:56;;;;;;;9.20;4.82;;;20.90;99.90;;;;;;5077005;28;20193;-74
2023/08/22 08:16:22;;;;;;;10.48;5.57;;;21.10;99.90;;;;;;5077155;28;20220;-74
2023/08/22 08:18:50;;;;;;;12.52;6.57;;;21.20;99.90;;;;;;5076271;28;20256;-74
2023/08/22 08:21:17;;;;;;;11.55;6.07;;;21.40;99.90;;;;;;5075773;28;20678;-74
2023/08/22 08:23:44;;;;;;;14.90;6.03;;;21.50;99.90;;;;;;5075649;28;20227;-74
2023/08/22 08:26:11;;;;;;;12.10;5.47;;;21.60;99.90;;;;;;5076880;28;20174;-74
2023/08/22 08:28:36;;;;;;;8.50;4.93;;;21.80;99.90;;;;;;5076880;28;20261;-74
2023/08/22 08:31:02;;;;;;;14.77;5.32;;;22.00;99.90;;;;;;5076573;28;20280;-74
2023/08/22 08:33:28;;;;;;;12.05;5.20;;;22.20;99.90;;;;;;5076250;28;20185;-74
2023/08/22 08:35:54;;;;;;;14.98;4.65;;;22.50;99.90;;;;;;5076654;28;20169;-74
2023/08/22 08:38:20;;;;;;;10.50;4.78;;;22.80;99.90;;;;;;5076410;28;20207;-74
2023/08/22 08:40:46;;;;;;;9.43;4.53;;;23.10;99.90;;;;;;5076451;28;20194;-74
2023/08/22 08:43:12;;;;;;;13.15;4.88;;;23.50;99.90;;;;;;5084245;28;20174;-74
2023/08/22 08:45:40;;;;;;;7.00;4.43;;;23.80;99.90;;;;;;5088598;28;20174;-74
2023/08/22 08:48:06;;;;;;;12.02;4.60;;;23.80;99.90;;;;;;5090258;28;20174;-74
2023/08/22 08:50:33;;;;;;;14.55;5.00;;;24.00;99.90;;;;;;5080713;28;20217;-74
2023/08/22 08:53:00;;;;;;;9.25;4.63;;;24.30;99.90;;;;;;5089316;28;20177;-74
2023/08/22 08:55:26;;;;;;;11.50;5.40;;;24.50;99.90;;;;;;5090565;28;20180;-75
2023/08/22 08:57:52;;;;;;;13.32;4.97;;;24.60;99.90;;;;;;5088051;28;20186;-74
2023/08/22 09:00:18;;;;;;;16.58;5.10;;;24.90;99.90;;;;;;5075814;28;20189;-74
2023/08/22 09:02:44;;;;;;;12.95;4.97;;;25.20;99.90;;;;;;5092418;28;20187;-74
2023/08/22 09:05:11;;;;;;;12.13;5.03;;;25.30;99.90;;;;;;5095850;28;20692;-74
2023/08/22 09:07:37;;;;;;;9.40;4.72;;;25.50;99.90;;;;;;5095951;28;20188;-74
2023/08/22 09:10:04;;;;;;;7.80;3.80;;;25.40;99.90;;;;;;5094589;28;20732;-74
2023/08/22 09:12:36;;;;;;;9.68;4.95;;;25.50;99.90;;;;;;5095821;28;20262;-74
2023/08/22 09:15:06;;;;;;;8.85;4.25;;;25.30;99.90;;;;;;5095874;28;20269;-74
2023/08/22 09:17:32;;;;;;;12.70;4.15;;;25.10;99.90;;;;;;5094256;28;20232;-74
2023/08/22 09:19:58;;;;;;;12.00;5.05;;;25.20;1.00;;;;;;5095278;28;20548;-74
2023/08/22 09:22:30;;;;;;;14.52;5.35;;;25.20;1.00;;;;;;5095416;28;20594;-74
2023/08/22 09:24:56;;;;;;;10.77;4.70;;;25.00;99.90;;;;;;5095901;28;20173;-74
2023/08/22 09:27:25;;;;;;;14.25;5.20;;;24.80;99.90;;;;;;5097166;28;20204;-74
2023/08/22 09:29:51;;;;;;;8.40;4.53;;;24.60;99.90;;;;;;5094080;28;20181;-74
2023/08/22 09:32:19;;;;;;;9.05;4.43;;;24.60;1.00;;;;;;5083837;28;20197;-74
2023/08/22 09:34:56;;;;;;;7.88;3.90;;;24.50;1.00;;;;;;5073664;28;20174;-74
2023/08/22 09:37:35;;;;;;;10.40;4.65;;;24.60;1.00;;;;;;5073558;28;20214;-74
2023/08/22 09:40:05;;;;;;;11.32;5.97;;;24.60;1.00;;;;;;5073892;28;20189;-74
2023/08/22 09:42:31;;;;;;;9.27;4.70;;;24.60;1.00;;;;;;5074809;28;20170;-74
2023/08/22 09:44:57;;;;;;;11.30;4.63;;;24.60;1.00;;;;;;5074789;28;20176;-74
2023/08/22 09:47:32;;;;;;;8.13;4.30;;;24.60;1.00;;;;;;5075176;28;20174;-74
2023/08/22 09:50:04;;;;;;;10.38;4.60;;;24.50;1.00;;;;;;5073182;28;20603;-74
2023/08/22 09:52:30;;;;;;;11.43;4.90;;;24.30;99.90;;;;;;5074943;28;20219;-74
2023/08/22 09:54:57;;;;;;;13.23;5.55;;;24.30;99.90;;;;;;5074807;28;20181;-74
2023/08/22 09:57:26;;;;;;;10.30;5.43;;;24.30;99.90;;;;;;5073283;28;20563;-74
2023/08/22 09:59:51;;;;;;;14.05;5.93;;;24.30;1.00;;;;;;5073613;28;20541;-74
2023/08/22 10:02:21;;;;;;;8.02;5.18;;;24.20;99.90;;;;;;5074272;28;20193;-74
2023/08/22 10:04:47;;;;;;;14.13;5.30;;;24.20;1.00;;;;;;5074153;28;20174;-74
2023/08/22 10:07:13;;;;;;;8.48;4.90;;;24.30;99.90;;;;;;5074382;28;20578;-74
2023/08/22 10:09:40;;;;;;;12.18;5.18;;;24.40;1.00;;;;;;5074708;28;20256;-74
2023/08/22 10:12:09;;;;;;;10.35;5.18;;;24.40;99.90;;;;;;5075675;28;20204;-73
2023/08/22 10:14:59;;;;;;;10.13;4.50;;;24.60;1.00;;;;;;5075765;28;20170;-74
2023/08/22 10:17:28;;;;;;;11.98;5.72;;;24.80;1.00;;;;;;5074591;28;20190;-74
2023/08/22 10:20:04;;;;;;;10.48;4.75;;;25.20;99.90;;;;;;5073945;28;20215;-74
2023/08/22 10:22:33;;;;;;;13.23;4.90;;;25.50;7.00;;;;;;5075166;28;20169;-74
2023/08/22 10:25:04;;;;;;;13.43;5.63;;;25.80;1.00;;;;;;5074484;28;20543;-74
2023/08/22 10:27:30;;;;;;;8.70;4.80;;;25.80;1.00;;;;;;5074071;28;20185;-74
2023/08/22 10:30:23;;;;;;;10.70;5.90;;;25.90;1.00;;;;;;5074395;28;20535;-74
2023/08/22 10:33:06;;;;;;;13.82;4.88;;;26.00;99.90;;;;;;5073128;28;20190;-74
2023/08/22 10:35:31;;;;;;;12.73;6.05;;;25.90;3.30;;;;;;5073525;28;20164;-74
2023/08/22 10:37:57;;;;;;;10.88;5.75;;;25.90;1.00;;;;;;5072219;28;20292;-74
2023/08/22 10:40:31;;;;;;;12.38;5.95;;;25.60;1.00;;;;;;5073451;28;20235;-74
2023/08/22 10:43:04;;;;;;;8.65;4.88;;;25.60;99.90;;;;;;5073516;28;20252;-74
2023/08/22 10:45:40;;;;;;;13.40;6.45;;;25.70;1.00;;;;;;5073578;28;20205;-74
2023/08/22 10:48:13;;;;;;;10.25;5.28;;;25.70;1.00;;;;;;5074073;28;20161;-74
2023/08/22 10:50:43;;;;;;;10.40;5.57;;;25.60;1.00;;;;;;5073582;28;20194;-74
2023/08/22 10:53:27;;;;;;;11.13;5.40;;;25.60;43.40;;;;;;5073770;28;20169;-74
2023/08/22 10:55:54;;;;;;;9.60;5.60;;;25.60;1.00;;;;;;5072017;28;20189;-74
2023/08/22 10:58:36;;;;;;;9.07;5.22;;;25.70;1.00;;;;;;5073968;28;20166;-74
2023/08/22 11:01:06;;;;;;;9.57;4.97;;;25.60;1.00;;;;;;5072246;28;20565;-74
2023/08/22 11:03:32;;;;;;;10.48;5.68;;;25.40;1.00;;;;;;5073063;28;20169;-74
2023/08/22 11:05:58;;;;;;;11.88;6.25;;;25.50;1.00;;;;;;5073968;28;20189;-74
2023/08/22 11:08:24;;;;;;;13.85;6.45;;;25.50;99.90;;;;;;5073524;28;20213;-74
2023/08/22 11:10:52;;;;;;;16.08;6.65;;;25.50;99.90;;;;;;5073251;28;20239;-74
2023/08/22 11:13:17;;;;;;;14.60;7.88;;;25.50;99.90;;;;;;5073414;28;20172;-74
2023/08/22 11:15:47;;;;;;;15.10;7.75;;;25.40;99.90;;;;;;5071988;28;20560;-74
2023/08/22 11:18:13;;;;;;;14.70;7.88;;;25.30;1.00;;;;;;5073194;28;20618;-74
2023/08/22 11:20:41;;;;;;;14.63;6.30;;;25.20;1.00;;;;;;5072945;28;20705;-74
2023/08/22 11:23:07;;;;;;;14.55;7.55;;;25.20;99.90;;;;;;5073120;28;20212;-74
2023/08/22 11:25:33;;;;;;;10.60;6.40;;;25.30;99.90;;;;;;5073176;28;20217;-74
2023/08/22 11:27:59;;;;;;;12.60;7.25;;;25.40;1.00;;;;;;5073218;28;20185;-74
2023/08/22 11:30:25;;;;;;;12.80;5.80;;;25.40;99.90;;;;;;5071794;28;20198;-74
2023/08/22 11:32:51;;;;;;;9.88;6.65;;;25.30;99.90;;;;;;5086532;28;20189;-74
2023/08/22 11:35:17;;;;;;;12.27;6.15;;;25.30;31.00;;;;;;5092014;28;20181;-74
2023/08/22 11:37:42;;;;;;;10.18;6.05;;;25.20;1.00;;;;;;5093204;28;20197;-74
2023/08/22 11:40:15;;;;;;;11.60;5.75;;;25.20;1.00;;;;;;5096187;28;20178;-74
2023/08/22 11:42:41;;;;;;;10.20;5.60;;;25.20;99.90;;;;;;5095969;28;20205;-74
2023/08/22 11:45:13;;;;;;;10.20;5.40;;;25.20;1.00;;;;;;5097111;28;20192;-74
2023/08/22 11:47:42;;;;;;;18.58;5.57;;;25.40;99.90;;;;;;5097047;28;20562;-74
2023/08/22 11:50:24;;;;;;;7.97;5.00;;;25.60;1.00;;;;;;5095397;28;20188;-74
2023/08/22 11:53:10;;;;;;;10.45;5.47;;;26.00;1.00;;;;;;5096859;28;20169;-74
2023/08/22 11:55:40;;;;;;;9.25;5.13;;;25.90;99.90;;;;;;5096994;28;20247;-74
2023/08/22 11:58:09;;;;;;;7.57;4.32;;;25.80;1.00;;;;;;5097140;28;20714;-74
2023/08/22 12:00:35;;;;;;;9.00;5.65;;;26.00;1.00;;;;;;5096984;28;20562;-74
2023/08/22 12:03:05;;;;;;;10.82;6.10;;;26.20;99.90;;;;;;5095451;28;20185;-74
2023/08/22 12:05:34;;;;;;;10.00;6.53;;;26.20;1.00;;;;;;5096889;28;20197;-74
2023/08/22 12:08:11;;;;;;;11.05;6.15;;;26.30;1.00;;;;;;5096700;28;20168;-74
2023/08/22 12:10:58;;;;;;;8.45;5.88;;;26.30;99.90;;;;;;5096641;28;20276;-74
2023/08/22 12:13:24;;;;;;;10.82;6.28;;;26.30;99.90;;;;;;5096807;28;20161;-74
2023/08/22 12:15:51;;;;;;;7.38;5.05;;;26.50;1.00;;;;;;5095260;28;20173;-74
2023/08/22 12:18:17;;;;;;;11.40;6.72;;;26.70;1.00;;;;;;5096321;28;20239;-74
2023/08/22 12:20:44;;;;;;;8.45;5.93;;;26.70;97.70;;;;;;5096169;28;20250;-74
2023/08/22 12:23:12;;;;;;;10.27;5.40;;;26.70;99.90;;;;;;5095019;28;20516;-74
2023/08/22 12:25:41;;;;;;;10.45;5.72;;;26.50;99.90;;;;;;5096292;28;20172;-74
2023/08/22 12:28:07;;;;;;;10.10;5.85;;;26.40;99.90;;;;;;5096746;28;20197;-74
2023/08/22 12:30:33;;;;;;;11.40;6.57;;;26.20;99.90;;;;;;5096396;28;20699;-74
2023/08/22 12:33:03;;;;;;;9.95;6.60;;;26.20;26.80;;;;;;5079055;28;20178;-74
2023/08/22 12:35:34;;;;;;;10.55;6.10;;;26.20;1.00;;;;;;5074683;28;20174;-75
2023/08/22 12:38:00;;;;;;;11.30;6.03;;;26.10;1.00;;;;;;5074808;28;20209;-75
2023/08/22 12:40:26;;;;;;;9.20;5.55;;;26.20;99.90;;;;;;5076058;28;20186;-75
2023/08/22 12:42:52;;;;;;;8.65;5.07;;;26.30;56.60;;;;;;5075971;28;20656;-75